Time;durP1;ratioP1;P1;durP2;ratioP2;P2;SDS_P1;SDS_P2;PMS_P1;PMS_P2;Temp;Humidity;BMP_temperature;BMP_pressure;BME280_temperature;BME280_humidity;BME280_pressure;Samples;Min_cycle;Max_cycle;Signal;HPM_P1;HPM_P2
2023/09/21 00:00:27;;;;;;;4.97;2.70;;;;;;;21.89;64.42;99297.53;4989698;28;22111;-65
2023/09/21 00:02:55;;;;;;;5.63;2.43;;;;;;;21.87;64.33;99291.38;4984952;28;20211;-66
2023/09/21 00:05:24;;;;;;;5.87;2.60;;;;;;;21.88;64.86;99290.13;4972250;28;20532;-65
2023/09/21 00:07:49;;;;;;;3.90;2.10;;;;;;;21.87;64.33;99291.38;4992173;28;20471;-65
2023/09/21 00:10:15;;;;;;;5.10;2.07;;;;;;;21.87;64.51;99291.38;4980488;28;20519;-65
2023/09/21 00:12:41;;;;;;;8.70;1.97;;;;;;;21.86;64.52;99297.53;5000685;28;20189;-65
2023/09/21 00:15:12;;;;;;;8.07;2.60;;;;;;;21.85;64.47;99285.25;5008358;28;20236;-65
2023/09/21 00:17:38;;;;;;;5.03;2.60;;;;;;;21.86;64.29;99280.28;4994630;28;21294;-65
2023/09/21 00:20:16;;;;;;;7.57;2.80;;;;;;;21.86;63.89;99275.38;4981586;28;20441;-65
2023/09/21 00:22:42;;;;;;;3.43;2.17;;;;;;;21.85;63.95;99285.25;5008694;28;20436;-65
2023/09/21 00:25:08;;;;;;;4.40;2.30;;;;;;;21.85;63.99;99284.41;5008521;28;20419;-65
2023/09/21 00:27:33;;;;;;;5.60;2.50;;;;;;;21.85;64.10;99275.78;4996646;28;20186;-65
2023/09/21 00:30:01;;;;;;;4.93;2.60;;;;;;;21.85;63.94;99278.66;4985526;28;20499;-65
2023/09/21 00:32:27;;;;;;;3.80;1.83;;;;;;;21.84;64.23;99271.28;5001671;28;20201;-65
2023/09/21 00:34:52;;;;;;;2.80;1.80;;;;;;;21.83;63.93;99270.47;4993283;28;20413;-65
2023/09/21 00:37:17;;;;;;;5.20;1.93;;;;;;;21.81;63.83;99270.09;5001902;28;20181;-65
2023/09/21 00:39:43;;;;;;;3.80;2.17;;;;;;;21.81;64.31;99261.47;4993279;28;20188;-65
2023/09/21 00:42:09;;;;;;;3.70;2.23;;;;;;;21.82;64.18;99268.03;5010979;28;20236;-65
2023/09/21 00:44:35;;;;;;;5.37;2.70;;;;;;;21.82;64.01;99265.19;5012253;28;20308;-65
2023/09/21 00:47:00;;;;;;;5.47;2.50;;;;;;;21.82;64.08;99265.19;5011899;28;20915;-65
2023/09/21 00:49:26;;;;;;;7.03;2.37;;;;;;;21.83;63.88;99266.81;4990886;28;20181;-65
2023/09/21 00:51:55;;;;;;;6.83;2.47;;;;;;;21.82;63.82;99265.19;5011541;28;20173;-65
2023/09/21 00:54:21;;;;;;;4.70;2.17;;;;;;;21.82;63.91;99259.44;5010693;28;20632;-65
2023/09/21 00:56:48;;;;;;;8.47;2.50;;;;;;;21.82;63.72;99262.31;5002792;28;20455;-65
2023/09/21 00:59:15;;;;;;;4.27;2.27;;;;;;;21.81;63.54;99261.47;4975176;28;20209;-65
2023/09/21 01:01:40;;;;;;;3.87;2.23;;;;;;;21.81;63.98;99266.41;5003431;28;20448;-64
2023/09/21 01:04:06;;;;;;;3.80;2.00;;;;;;;21.80;63.83;99256.16;4993896;28;20497;-64
2023/09/21 01:06:31;;;;;;;3.20;1.93;;;;;;;21.81;63.85;99261.47;5011787;28;20178;-65
2023/09/21 01:08:57;;;;;;;3.97;2.37;;;;;;;21.80;64.08;99251.22;5011651;28;20656;-65
2023/09/21 01:11:22;;;;;;;4.00;2.13;;;;;;;21.81;64.09;99255.72;5007203;28;20205;-64
2023/09/21 01:13:48;;;;;;;3.77;1.80;;;;;;;21.81;63.53;99254.91;5007645;28;20192;-65
2023/09/21 01:16:15;;;;;;;6.60;2.87;;;;;;;21.81;63.45;99249.16;5011050;28;20233;-64
2023/09/21 01:18:41;;;;;;;6.60;2.27;;;;;;;21.80;63.84;99248.34;5008837;28;20212;-64
2023/09/21 01:21:09;;;;;;;3.80;2.20;;;;;;;21.81;63.75;99237.66;5010548;28;20427;-65
2023/09/21 01:23:52;;;;;;;3.60;1.90;;;;;;;21.82;63.84;99239.31;4993980;28;20404;-64
2023/09/21 01:26:18;;;;;;;3.73;2.10;;;;;;;21.79;63.96;99238.13;5010987;28;21082;-64
2023/09/21 01:28:45;;;;;;;5.33;2.23;;;;;;;21.79;63.87;99234.41;4981909;28;20472;-64
2023/09/21 01:31:13;;;;;;;3.97;2.27;;;;;;;21.79;63.90;99231.53;5002146;28;20946;-64
2023/09/21 01:33:39;;;;;;;3.80;2.17;;;;;;;21.79;63.82;99222.91;5011424;28;20435;-64
2023/09/21 01:36:08;;;;;;;5.60;2.33;;;;;;;21.73;63.55;99219.69;4974211;28;20421;-64
2023/09/21 01:38:34;;;;;;;3.50;2.03;;;;;;;21.75;63.51;99214.34;4984720;28;20907;-64
2023/09/21 01:41:00;;;;;;;3.90;1.87;;;;;;;21.75;63.31;99207.78;4983644;28;20486;-65
2023/09/21 01:43:25;;;;;;;4.10;2.60;;;;;;;21.74;64.30;99209.84;5006944;28;20444;-64
2023/09/21 01:45:51;;;;;;;5.83;2.10;;;;;;;21.75;63.83;99199.97;4993377;28;20908;-65
2023/09/21 01:48:20;;;;;;;6.23;2.60;;;;;;;21.75;64.71;99196.28;5007985;28;20185;-64
2023/09/21 01:50:50;;;;;;;4.47;2.20;;;;;;;21.76;63.68;99189.28;5010905;28;20181;-64
2023/09/21 01:53:20;;;;;;;3.30;2.00;;;;;;;21.74;64.47;99188.91;5008736;28;20562;-65
2023/09/21 01:55:47;;;;;;;5.23;2.60;;;;;;;21.72;63.84;99197.97;5011046;28;20424;-64
2023/09/21 01:58:13;;;;;;;9.33;2.40;;;;;;;21.70;63.88;99194.72;4989812;28;20536;-65
2023/09/21 02:00:39;;;;;;;5.00;2.00;;;;;;;21.72;63.85;99189.34;5006155;28;20816;-64
2023/09/21 02:03:09;;;;;;;6.90;2.60;;;;;;;21.72;64.09;99180.72;4992103;28;21223;-65
2023/09/21 02:05:35;;;;;;;5.93;2.63;;;;;;;21.71;64.44;99176.22;4991995;28;20429;-64
2023/09/21 02:08:00;;;;;;;4.97;2.37;;;;;;;21.70;63.93;99182.41;4990167;28;20436;-64
2023/09/21 02:10:27;;;;;;;4.27;2.17;;;;;;;21.70;63.59;99182.41;4982736;28;20466;-64
2023/09/21 02:12:56;;;;;;;6.10;2.17;;;;;;;21.70;63.92;99179.53;4974183;28;20702;-64
2023/09/21 02:15:22;;;;;;;7.00;3.10;;;;;;;21.70;64.15;99168.84;5006044;28;20598;-64
2023/09/21 02:17:48;;;;;;;5.23;2.60;;;;;;;21.71;64.47;99170.47;5009609;28;20826;-64
2023/09/21 02:20:13;;;;;;;7.93;2.17;;;;;;;21.72;64.49;99168.44;4990744;28;20456;-64
2023/09/21 02:22:47;;;;;;;6.57;2.70;;;;;;;21.73;64.77;99159.34;5007289;28;20591;-65
2023/09/21 02:25:13;;;;;;;7.37;2.60;;;;;;;21.73;65.08;99165.09;4989780;28;20684;-65
2023/09/21 02:27:40;;;;;;;7.10;2.83;;;;;;;21.72;65.01;99151.19;5004774;28;20463;-64
2023/09/21 02:30:06;;;;;;;4.20;2.40;;;;;;;21.73;64.80;99153.63;5009428;28;20185;-64
2023/09/21 02:32:33;;;;;;;6.30;2.70;;;;;;;21.73;64.61;99155.69;4992437;28;21127;-64
2023/09/21 02:34:59;;;;;;;4.00;2.40;;;;;;;21.74;64.53;99157.31;5006522;28;20451;-64
2023/09/21 02:37:25;;;;;;;6.80;2.70;;;;;;;21.72;64.88;99154.06;5009719;28;20412;-64
2023/09/21 02:39:51;;;;;;;3.27;2.10;;;;;;;21.71;64.49;99164.72;4989772;28;20970;-64
2023/09/21 02:42:16;;;;;;;5.60;2.43;;;;;;;21.70;64.96;99157.38;5009270;28;20954;-64
2023/09/21 02:44:46;;;;;;;4.60;2.50;;;;;;;21.71;64.63;99152.41;4992586;28;20160;-64
2023/09/21 02:47:11;;;;;;;6.40;2.43;;;;;;;21.70;64.33;99156.53;4988023;28;20243;-64
2023/09/21 02:49:36;;;;;;;6.87;2.27;;;;;;;21.69;64.75;99158.63;5009309;28;20424;-64
2023/09/21 02:52:04;;;;;;;6.50;2.83;;;;;;;21.68;65.23;99148.34;5009582;28;20181;-65
2023/09/21 02:54:30;;;;;;;7.93;2.60;;;;;;;21.68;65.23;99145.47;5008818;28;20263;-64
2023/09/21 02:56:57;;;;;;;8.47;2.53;;;;;;;21.68;65.14;99145.47;5004672;28;20475;-65
2023/09/21 02:59:25;;;;;;;3.13;2.00;;;;;;;21.68;65.51;99128.22;4972764;28;20939;-65
2023/09/21 03:01:54;;;;;;;5.43;2.30;;;;;;;21.68;65.63;99119.63;4984887;28;20193;-64
2023/09/21 03:04:19;;;;;;;5.17;2.33;;;;;;;21.68;65.07;99133.97;5008145;28;20542;-64
2023/09/21 03:06:45;;;;;;;5.13;2.40;;;;;;;21.70;64.98;99130.69;5009899;28;20440;-64
2023/09/21 03:09:11;;;;;;;7.30;2.53;;;;;;;21.66;65.36;99124.97;5005554;28;20185;-64
2023/09/21 03:11:36;;;;;;;5.67;2.30;;;;;;;21.65;65.13;99131.94;4994957;28;20208;-64
2023/09/21 03:14:04;;;;;;;4.30;2.20;;;;;;;21.65;64.24;99131.94;5004279;28;20541;-64
2023/09/21 03:16:30;;;;;;;8.63;2.80;;;;;;;21.65;64.31;99131.94;4979263;28;20200;-64
2023/09/21 03:18:55;;;;;;;4.90;2.47;;;;;;;21.66;64.88;99127.84;5009439;28;20456;-65
2023/09/21 03:21:21;;;;;;;6.33;2.70;;;;;;;21.65;64.91;99137.69;5005435;28;20273;-64
2023/09/21 03:23:46;;;;;;;5.90;2.87;;;;;;;21.65;65.42;99137.69;4974766;28;20189;-65
2023/09/21 03:26:13;;;;;;;6.63;2.40;;;;;;;21.65;64.76;99137.69;4956537;28;20182;-64
2023/09/21 03:28:39;;;;;;;3.70;2.07;;;;;;;21.67;65.25;99140.16;4957250;28;20193;-64
2023/09/21 03:31:05;;;;;;;5.57;2.07;;;;;;;21.66;65.73;99139.31;4988935;28;20452;-64
2023/09/21 03:33:31;;;;;;;10.37;2.50;;;;;;;21.67;65.50;99132.31;5008950;28;20188;-64
2023/09/21 03:35:56;;;;;;;4.50;2.33;;;;;;;21.68;65.33;99127.41;4991427;28;20200;-65
2023/09/21 03:38:22;;;;;;;5.17;2.40;;;;;;;21.69;65.78;99131.94;5008859;28;20460;-64
2023/09/21 03:40:49;;;;;;;13.97;2.33;;;;;;;21.68;65.99;99119.63;4989540;28;20185;-65
2023/09/21 03:43:14;;;;;;;5.93;2.40;;;;;;;21.70;66.09;99119.19;4988091;28;20433;-64
2023/09/21 03:45:41;;;;;;;5.60;2.50;;;;;;;21.69;65.52;99118.41;4992166;28;20970;-64
2023/09/21 03:48:08;;;;;;;4.67;2.63;;;;;;;21.68;65.76;99125.34;4972434;28;20158;-64
2023/09/21 03:50:34;;;;;;;4.10;2.07;;;;;;;21.68;65.44;99125.34;4988145;28;20424;-64
2023/09/21 03:52:59;;;;;;;5.53;2.37;;;;;;;21.67;65.75;99123.72;4997882;28;20460;-64
2023/09/21 03:55:25;;;;;;;5.50;2.63;;;;;;;21.67;65.85;99112.22;4987238;28;20190;-64
2023/09/21 03:57:50;;;;;;;5.33;2.60;;;;;;;21.66;65.53;99110.59;5005187;28;20201;-64
2023/09/21 04:00:26;;;;;;;5.27;3.10;;;;;;;21.66;66.06;99099.09;5008956;28;20212;-64
2023/09/21 04:03:00;;;;;;;5.53;2.63;;;;;;;21.66;66.36;99093.34;4998746;28;20189;-64
2023/09/21 04:05:26;;;;;;;5.03;2.20;;;;;;;21.67;66.83;99083.50;4975384;28;20425;-65
2023/09/21 04:07:52;;;;;;;9.83;2.27;;;;;;;21.67;66.25;99083.50;5001253;28;20907;-64
2023/09/21 04:10:18;;;;;;;4.83;2.50;;;;;;;21.68;66.48;99079.41;5005040;28;20471;-64
2023/09/21 04:12:44;;;;;;;7.23;2.83;;;;;;;21.67;66.46;99074.88;4999781;28;20517;-64
2023/09/21 04:15:11;;;;;;;5.83;2.47;;;;;;;21.66;66.62;99081.88;5008047;28;20722;-64
2023/09/21 04:17:39;;;;;;;5.40;2.17;;;;;;;21.68;66.29;99090.88;4991901;28;20807;-64
2023/09/21 04:20:10;;;;;;;9.23;2.37;;;;;;;21.69;66.54;99100.34;5008742;28;20830;-64
2023/09/21 04:22:39;;;;;;;5.80;3.07;;;;;;;21.69;66.16;99097.47;4986280;28;20947;-64
2023/09/21 04:25:09;;;;;;;5.33;2.13;;;;;;;21.68;66.77;99096.63;4992979;28;20840;-64
2023/09/21 04:27:39;;;;;;;4.27;2.33;;;;;;;21.68;66.18;99082.28;4976109;28;20448;-65
2023/09/21 04:30:09;;;;;;;5.33;2.50;;;;;;;21.65;66.81;99074.50;5008795;28;20439;-65
2023/09/21 04:32:38;;;;;;;5.20;2.50;;;;;;;21.66;66.44;99073.25;4996996;28;20424;-65
2023/09/21 04:35:04;;;;;;;3.47;2.43;;;;;;;21.66;66.81;99070.38;4992729;28;20429;-65
2023/09/21 04:37:30;;;;;;;3.60;2.23;;;;;;;21.66;66.89;99079.00;4994505;28;20424;-65
2023/09/21 04:39:55;;;;;;;3.63;2.57;;;;;;;21.66;67.08;99069.56;5010265;28;20901;-65
2023/09/21 04:42:21;;;;;;;5.83;2.20;;;;;;;21.67;66.85;99074.88;5012482;28;20185;-65
2023/09/21 04:44:46;;;;;;;8.77;2.60;;;;;;;21.66;66.81;99070.38;5012291;28;20161;-65
2023/09/21 04:47:11;;;;;;;4.43;2.60;;;;;;;21.66;66.51;99081.03;5007542;28;20192;-65
2023/09/21 04:49:40;;;;;;;5.43;2.37;;;;;;;21.66;66.82;99076.13;5001513;28;20185;-65
2023/09/21 04:52:05;;;;;;;6.23;3.13;;;;;;;21.65;66.66;99071.63;4975448;28;20178;-65
2023/09/21 04:54:31;;;;;;;6.57;2.93;;;;;;;21.65;67.16;99065.88;5008413;28;20487;-65
2023/09/21 04:56:56;;;;;;;5.27;2.87;;;;;;;21.66;66.91;99069.56;5012070;28;20181;-65
2023/09/21 04:59:23;;;;;;;9.43;2.60;;;;;;;21.65;66.68;99060.13;4979477;28;20202;-65
2023/09/21 05:01:48;;;;;;;4.40;2.83;;;;;;;21.65;67.22;99060.13;4998493;28;20182;-64
2023/09/21 05:04:14;;;;;;;3.80;2.23;;;;;;;21.64;66.60;99064.25;5008308;28;20428;-65
2023/09/21 05:06:39;;;;;;;4.53;2.80;;;;;;;21.64;67.30;99066.31;4994539;28;20613;-64
2023/09/21 05:09:05;;;;;;;5.80;2.33;;;;;;;21.62;67.05;99063.06;5004154;28;20237;-65
2023/09/21 05:11:38;;;;;;;3.90;2.17;;;;;;;21.63;67.24;99067.56;5012181;28;20217;-65
2023/09/21 05:14:05;;;;;;;7.90;2.90;;;;;;;21.64;67.42;99063.44;5006697;28;20181;-65
2023/09/21 05:16:32;;;;;;;6.50;2.57;;;;;;;21.64;67.28;99067.13;4991247;28;20539;-65
2023/09/21 05:18:57;;;;;;;4.97;2.63;;;;;;;21.65;67.52;99062.19;4977613;28;20983;-65
2023/09/21 05:21:23;;;;;;;4.13;2.67;;;;;;;21.65;67.58;99068.75;5011398;28;20530;-65
2023/09/21 05:23:48;;;;;;;4.80;2.40;;;;;;;21.63;67.34;99059.75;4990882;28;20533;-65
2023/09/21 05:26:13;;;;;;;4.97;2.30;;;;;;;21.63;67.47;99065.47;4974733;28;20697;-65
2023/09/21 05:28:39;;;;;;;4.07;2.50;;;;;;;21.63;67.06;99062.63;4987525;28;20541;-65
2023/09/21 05:31:04;;;;;;;6.47;2.60;;;;;;;21.63;67.52;99062.63;4990509;28;20874;-65
2023/09/21 05:33:30;;;;;;;5.30;2.30;;;;;;;21.63;67.47;99056.88;5011234;28;20649;-65
2023/09/21 05:35:56;;;;;;;4.60;2.33;;;;;;;21.64;67.34;99054.81;5007024;28;20243;-64
2023/09/21 05:38:22;;;;;;;4.63;1.87;;;;;;;21.64;67.21;99055.66;5000661;28;20546;-65
2023/09/21 05:40:47;;;;;;;3.80;2.07;;;;;;;21.65;67.22;99059.31;5007588;28;20251;-65
2023/09/21 05:43:15;;;;;;;6.10;3.50;;;;;;;21.65;67.62;99065.88;4989592;28;20192;-64
2023/09/21 05:45:40;;;;;;;6.83;2.43;;;;;;;21.65;67.72;99063.00;5010409;28;20179;-64
2023/09/21 05:48:14;;;;;;;3.53;2.20;;;;;;;21.65;67.53;99068.75;4992570;28;20420;-64
2023/09/21 05:50:41;;;;;;;3.67;2.50;;;;;;;21.65;67.21;99070.81;5008499;28;20636;-65
2023/09/21 05:53:07;;;;;;;5.23;3.07;;;;;;;21.63;67.42;99076.97;5009773;28;20428;-64
2023/09/21 05:55:32;;;;;;;5.00;2.50;;;;;;;21.62;67.93;99069.59;4993189;28;20431;-64
2023/09/21 05:57:58;;;;;;;4.57;2.50;;;;;;;21.64;67.87;99078.63;5007373;28;20271;-64
2023/09/21 06:00:23;;;;;;;3.63;2.27;;;;;;;21.64;67.30;99077.81;4992547;28;20177;-64
2023/09/21 06:02:48;;;;;;;4.90;2.70;;;;;;;21.64;67.48;99083.53;5009818;28;20173;-64
2023/09/21 06:05:14;;;;;;;4.70;2.33;;;;;;;21.63;67.72;99082.72;5009243;28;20252;-64
2023/09/21 06:07:39;;;;;;;6.07;2.80;;;;;;;21.64;67.42;99086.41;4971353;28;20185;-64
2023/09/21 06:10:06;;;;;;;5.17;2.23;;;;;;;21.64;67.53;99084.38;5007617;28;20197;-64
2023/09/21 06:12:32;;;;;;;4.50;2.20;;;;;;;21.64;67.71;99090.13;4999932;28;20192;-64
2023/09/21 06:14:58;;;;;;;4.30;2.43;;;;;;;21.64;67.55;99086.41;5009941;28;20830;-64
2023/09/21 06:17:24;;;;;;;3.73;2.60;;;;;;;21.64;68.08;99084.38;5008456;28;20272;-64
2023/09/21 06:19:52;;;;;;;4.27;2.33;;;;;;;21.63;67.79;99085.59;4998886;28;20482;-64
2023/09/21 06:22:17;;;;;;;5.73;2.63;;;;;;;21.62;67.90;99081.09;5010181;28;20176;-64
2023/09/21 06:24:43;;;;;;;4.10;2.40;;;;;;;21.61;67.91;99081.53;5001709;28;20433;-64
2023/09/21 06:27:08;;;;;;;6.10;2.70;;;;;;;21.63;67.96;99091.34;4991514;28;20181;-65
2023/09/21 06:29:34;;;;;;;4.27;2.50;;;;;;;21.63;67.82;99094.22;5009974;28;20251;-64
2023/09/21 06:32:00;;;;;;;6.10;2.33;;;;;;;21.63;68.14;99090.53;5010146;28;20208;-64
2023/09/21 06:34:26;;;;;;;3.40;2.37;;;;;;;21.63;68.18;99088.47;4996085;28;20709;-64
2023/09/21 06:36:52;;;;;;;4.17;2.53;;;;;;;21.64;67.80;99083.53;4990357;28;20571;-64
2023/09/21 06:39:20;;;;;;;5.40;2.53;;;;;;;21.64;68.31;99078.63;4987224;28;20617;-64
2023/09/21 06:41:47;;;;;;;5.03;2.90;;;;;;;21.63;68.01;99071.22;5003195;28;20916;-64
2023/09/21 06:44:13;;;;;;;5.83;3.13;;;;;;;21.63;68.39;99068.34;4991157;28;20452;-64
2023/09/21 06:46:39;;;;;;;4.73;2.63;;;;;;;21.63;68.21;99061.81;5002489;28;20502;-65
2023/09/21 06:49:04;;;;;;;6.23;2.53;;;;;;;21.64;68.35;99058.53;5009347;28;21557;-65
2023/09/21 06:51:30;;;;;;;3.93;2.53;;;;;;;21.65;68.35;99042.06;4988431;28;20177;-65
2023/09/21 06:53:57;;;;;;;4.47;2.53;;;;;;;21.64;68.16;99043.34;4988624;28;20173;-65
2023/09/21 06:56:23;;;;;;;4.47;2.57;;;;;;;21.57;69.06;99044.25;5006527;28;20235;-64
2023/09/21 06:58:51;;;;;;;4.20;2.83;;;;;;;21.68;69.93;99039.19;4990805;28;20491;-65
2023/09/21 07:01:16;;;;;;;6.37;3.37;;;;;;;21.91;71.73;99036.38;5008731;28;20176;-65
2023/09/21 07:03:43;;;;;;;14.27;4.97;;;;;;;22.07;73.36;99032.84;5000770;28;20813;-64
2023/09/21 07:06:09;;;;;;;11.03;4.30;;;;;;;22.19;72.70;99027.31;4987730;28;20740;-65
2023/09/21 07:08:36;;;;;;;14.73;5.00;;;;;;;22.21;73.00;99033.41;5008444;28;20918;-65
2023/09/21 07:11:02;;;;;;;16.37;3.90;;;;;;;22.29;73.08;99029.19;5007785;28;20448;-66
2023/09/21 07:13:28;;;;;;;8.70;3.93;;;;;;;22.09;72.50;99019.66;4989265;28;20443;-65
2023/09/21 07:15:58;;;;;;;6.87;3.47;;;;;;;22.06;72.48;99022.56;5009396;28;20236;-65
2023/09/21 07:18:25;;;;;;;6.80;3.40;;;;;;;22.03;71.93;99026.34;5000113;28;20221;-65
2023/09/21 07:20:53;;;;;;;4.50;3.00;;;;;;;21.99;71.94;99025.59;5005045;28;20432;-65
2023/09/21 07:23:19;;;;;;;10.70;4.70;;;;;;;22.00;72.44;99022.28;5002624;28;20460;-65
2023/09/21 07:25:45;;;;;;;7.00;2.97;;;;;;;22.00;72.20;99030.91;5008709;28;20482;-65
2023/09/21 07:28:11;;;;;;;10.50;3.63;;;;;;;21.93;72.33;99021.56;5006143;28;20203;-66
2023/09/21 07:30:36;;;;;;;9.90;2.87;;;;;;;21.92;72.15;99023.63;5009097;28;20198;-66
2023/09/21 07:33:02;;;;;;;7.83;3.70;;;;;;;21.92;73.05;99019.97;5004109;28;20968;-66
2023/09/21 07:35:28;;;;;;;4.00;2.70;;;;;;;21.93;71.93;99027.31;5003081;28;20188;-66
2023/09/21 07:37:53;;;;;;;13.77;4.80;;;;;;;21.98;74.50;99013.25;4990864;28;20287;-66
2023/09/21 07:40:21;;;;;;;6.27;3.67;;;;;;;22.00;73.91;99005.03;4996049;28;20188;-65
2023/09/21 07:42:48;;;;;;;8.67;3.17;;;;;;;21.98;72.93;99012.47;5008253;28;20549;-66
2023/09/21 07:45:13;;;;;;;7.93;3.37;;;;;;;21.99;72.97;99009.16;5015533;28;20416;-65
2023/09/21 07:47:39;;;;;;;6.27;3.03;;;;;;;22.01;73.28;98994.34;5011297;28;20732;-66
2023/09/21 07:50:05;;;;;;;9.90;3.03;;;;;;;22.00;72.80;98989.84;5000220;28;20276;-65
2023/09/21 07:52:32;;;;;;;5.40;2.80;;;;;;;21.96;73.03;98987.03;5013135;28;20200;-66
2023/09/21 07:55:02;;;;;;;9.97;2.93;;;;;;;21.94;72.20;98980.09;4997043;28;20431;-66
2023/09/21 07:57:30;;;;;;;22.27;3.70;;;;;;;21.83;73.05;98971.63;4995309;28;20448;-65
2023/09/21 07:59:56;;;;;;;5.00;2.87;;;;;;;21.56;73.89;98970.00;5014240;28;20510;-65
2023/09/21 08:02:22;;;;;;;10.17;3.63;;;;;;;21.54;73.66;98961.84;4993807;28;20807;-66
2023/09/21 08:04:48;;;;;;;5.37;2.73;;;;;;;21.58;73.50;98965.44;5013826;28;20177;-65
2023/09/21 08:07:14;;;;;;;5.90;3.20;;;;;;;21.67;73.34;98971.47;5004551;28;20297;-65
2023/09/21 08:09:39;;;;;;;6.70;2.90;;;;;;;21.68;73.59;98990.34;4993347;28;20519;-65
2023/09/21 08:12:05;;;;;;;7.20;3.57;;;;;;;21.65;72.94;98999.81;4979973;28;20197;-65
2023/09/21 08:14:32;;;;;;;7.10;3.90;;;;;;;21.55;73.37;98997.09;4999619;28;20244;-65
2023/09/21 08:16:59;;;;;;;9.90;2.83;;;;;;;21.63;72.85;99004.38;4987124;28;20205;-65
2023/09/21 08:19:24;;;;;;;8.60;3.43;;;;;;;21.74;72.29;98990.69;5013877;28;20489;-66
2023/09/21 08:21:50;;;;;;;7.03;3.50;;;;;;;21.75;73.13;98989.44;4979698;28;20428;-65
2023/09/21 08:24:15;;;;;;;6.60;3.10;;;;;;;21.79;72.80;98985.28;5005245;28;20181;-65
2023/09/21 08:26:40;;;;;;;4.80;3.17;;;;;;;21.83;72.92;98970.84;5015064;28;20177;-65
2023/09/21 08:29:06;;;;;;;5.80;2.90;;;;;;;21.86;72.85;98982.28;4996446;28;20552;-65
2023/09/21 08:31:32;;;;;;;7.10;3.00;;;;;;;21.90;72.42;98973.59;5015271;28;20595;-65
2023/09/21 08:33:58;;;;;;;6.70;3.50;;;;;;;21.91;71.82;98964.53;5009947;28;20482;-65
2023/09/21 08:36:24;;;;;;;4.27;2.87;;;;;;;21.92;72.12;98971.09;4981096;28;20584;-65
2023/09/21 08:38:49;;;;;;;7.00;3.17;;;;;;;21.89;71.92;98964.16;4997381;28;20468;-65
2023/09/21 08:41:15;;;;;;;7.57;3.50;;;;;;;21.89;72.14;98958.41;5004006;28;20247;-65
2023/09/21 08:43:40;;;;;;;8.17;3.40;;;;;;;21.88;72.20;98945.28;4980667;28;20190;-65
2023/09/21 08:46:06;;;;;;;8.97;3.10;;;;;;;21.88;72.11;98945.28;4961229;28;20498;-65
2023/09/21 08:48:32;;;;;;;6.93;3.40;;;;;;;21.90;71.74;98942.81;4994118;28;20697;-65
2023/09/21 08:50:57;;;;;;;4.40;2.77;;;;;;;21.91;71.88;98940.72;4958126;28;20597;-65
2023/09/21 08:53:23;;;;;;;4.23;2.80;;;;;;;21.91;71.81;98947.28;4961244;28;20188;-65
2023/09/21 08:55:49;;;;;;;3.83;2.47;;;;;;;21.85;72.30;98956.84;5005999;28;20177;-65
2023/09/21 08:58:27;;;;;;;6.20;3.30;;;;;;;21.74;72.46;98957.03;5011650;28;20185;-65
2023/09/21 09:00:56;;;;;;;6.37;2.93;;;;;;;21.82;71.83;98957.72;4993352;28;20491;-65
2023/09/21 09:03:25;;;;;;;8.37;2.97;;;;;;;21.73;72.36;98958.25;5008065;28;20505;-65
2023/09/21 09:05:50;;;;;;;5.10;3.00;;;;;;;21.80;72.07;98961.03;5010612;28;20424;-65
2023/09/21 09:08:16;;;;;;;3.83;2.30;;;;;;;21.84;71.94;98956.03;4990992;28;20432;-65
2023/09/21 09:10:41;;;;;;;8.83;3.90;;;;;;;21.87;72.34;98949.41;5011648;28;20266;-65
2023/09/21 09:13:07;;;;;;;9.10;2.90;;;;;;;21.87;71.76;98954.34;4977261;28;20177;-65
2023/09/21 09:15:45;;;;;;;4.57;2.50;;;;;;;21.76;72.57;98954.53;5008177;28;20232;-65
2023/09/21 09:18:10;;;;;;;5.03;2.20;;;;;;;21.80;72.39;98951.59;4995383;28;20483;-65
2023/09/21 09:20:38;;;;;;;4.10;2.83;;;;;;;21.85;72.02;98954.78;5011249;28;20787;-65
2023/09/21 09:23:10;;;;;;;7.67;2.73;;;;;;;21.77;72.81;98956.13;4975050;28;20264;-65
2023/09/21 09:25:39;;;;;;;6.90;2.77;;;;;;;21.78;72.41;98952.00;4974966;28;20444;-65
2023/09/21 09:28:07;;;;;;;6.00;2.70;;;;;;;21.83;72.05;98953.59;4975101;28;20505;-65
2023/09/21 09:30:33;;;;;;;5.03;2.83;;;;;;;21.69;72.87;98948.91;4977787;28;20547;-65
2023/09/21 09:33:00;;;;;;;5.40;2.80;;;;;;;21.80;72.57;98946.66;4974563;28;20432;-65
2023/09/21 09:35:26;;;;;;;4.00;2.57;;;;;;;21.85;72.87;98939.59;4980598;28;20177;-65
2023/09/21 09:37:53;;;;;;;5.37;2.67;;;;;;;21.85;72.79;98937.56;4993442;28;20412;-65
2023/09/21 09:40:23;;;;;;;4.63;2.97;;;;;;;21.87;72.90;98932.16;4992746;28;20831;-65
2023/09/21 09:42:49;;;;;;;4.20;2.70;;;;;;;21.87;72.36;98940.78;5010493;28;20652;-65
2023/09/21 09:45:18;;;;;;;8.63;3.00;;;;;;;21.86;72.42;98933.41;5009114;28;20424;-65
2023/09/21 09:48:01;;;;;;;3.90;2.37;;;;;;;21.88;72.43;98928.03;5008812;28;20246;-65
2023/09/21 09:50:33;;;;;;;4.20;2.73;;;;;;;21.89;73.06;98937.47;5007674;28;20433;-65
2023/09/21 09:53:05;;;;;;;5.97;2.73;;;;;;;21.82;73.16;98926.91;5010641;28;20535;-65
2023/09/21 09:55:35;;;;;;;6.90;2.83;;;;;;;21.85;73.01;98928.94;5009599;28;20927;-65
2023/09/21 09:58:01;;;;;;;6.67;2.90;;;;;;;21.85;72.72;98926.06;4998865;28;20515;-65
2023/09/21 10:00:27;;;;;;;3.90;2.43;;;;;;;21.87;73.04;98932.16;4993572;28;20456;-65
2023/09/21 10:02:55;;;;;;;4.30;2.50;;;;;;;21.87;72.25;98917.81;4990247;28;20239;-65
2023/09/21 10:05:21;;;;;;;5.53;2.90;;;;;;;21.84;74.02;98898.56;4993533;28;20416;-65
2023/09/21 10:07:49;;;;;;;7.20;2.47;;;;;;;21.82;73.29;98909.69;5008484;28;21290;-65
2023/09/21 10:10:18;;;;;;;8.33;2.77;;;;;;;21.84;72.68;98904.31;5010160;28;20197;-65
2023/09/21 10:12:43;;;;;;;4.33;2.70;;;;;;;21.72;73.75;98904.94;4992515;28;20980;-65
2023/09/21 10:15:13;;;;;;;5.37;3.00;;;;;;;21.77;73.61;98904.44;4958707;28;20464;-65
2023/09/21 10:17:38;;;;;;;7.40;3.07;;;;;;;21.81;72.81;98898.63;4993643;28;20193;-65
2023/09/21 10:20:18;;;;;;;3.17;2.07;;;;;;;21.85;72.63;98897.31;4973589;28;20464;-65
2023/09/21 10:22:43;;;;;;;5.47;3.30;;;;;;;21.84;73.08;98894.88;4990841;28;20182;-66
2023/09/21 10:25:11;;;;;;;5.50;2.60;;;;;;;21.88;72.85;98898.50;4987206;28;21271;-65
2023/09/21 10:27:46;;;;;;;5.10;3.00;;;;;;;21.87;72.67;98896.91;4977386;28;20189;-66
2023/09/21 10:30:15;;;;;;;5.10;2.77;;;;;;;21.90;73.38;98893.13;4990939;28;20430;-66
2023/09/21 10:32:47;;;;;;;4.80;2.80;;;;;;;21.87;73.42;98894.81;5007856;28;20831;-66
2023/09/21 10:35:18;;;;;;;5.43;2.90;;;;;;;21.90;73.10;98896.81;5009349;28;20404;-65
2023/09/21 10:37:43;;;;;;;5.53;3.20;;;;;;;21.90;73.18;98879.59;5005959;28;20443;-65
2023/09/21 10:40:18;;;;;;;5.43;2.73;;;;;;;21.89;73.15;98877.97;4992676;28;20428;-65
2023/09/21 10:42:45;;;;;;;7.50;3.00;;;;;;;21.90;73.15;98875.88;4991534;28;20655;-66
2023/09/21 10:45:10;;;;;;;9.03;3.27;;;;;;;21.79;74.63;98872.41;4991181;28;20447;-65
2023/09/21 10:47:49;;;;;;;6.17;3.40;;;;;;;21.80;73.65;98854.72;5008501;28;20185;-66
2023/09/21 10:50:15;;;;;;;5.10;2.67;;;;;;;21.87;73.33;98851.72;4990404;28;20185;-65
2023/09/21 10:52:43;;;;;;;4.60;2.90;;;;;;;21.91;73.25;98846.72;4973225;28;20426;-66
2023/09/21 10:55:18;;;;;;;5.50;3.47;;;;;;;21.94;73.39;98845.03;4980561;28;20827;-65
2023/09/21 10:57:45;;;;;;;9.33;2.70;;;;;;;21.96;73.04;98833.88;5007969;28;20431;-65
2023/09/21 11:00:20;;;;;;;7.40;3.33;;;;;;;22.01;73.37;98827.63;5008790;28;20468;-65
2023/09/21 11:02:46;;;;;;;7.27;3.90;;;;;;;21.99;74.96;98825.22;5007320;28;20527;-66
2023/09/21 11:05:13;;;;;;;7.43;3.03;;;;;;;22.01;74.40;98819.00;4989838;28;20513;-66
2023/09/21 11:07:40;;;;;;;5.30;2.93;;;;;;;21.98;75.04;98800.59;4990166;28;20516;-65
2023/09/21 11:10:07;;;;;;;5.33;3.13;;;;;;;21.97;73.87;98804.72;4974522;28;20879;-65
2023/09/21 11:12:33;;;;;;;9.10;2.97;;;;;;;22.00;74.48;98800.97;5002776;28;20444;-65
2023/09/21 11:14:59;;;;;;;6.33;3.00;;;;;;;21.99;72.98;98793.63;4972129;28;20468;-65
2023/09/21 11:17:24;;;;;;;9.00;3.40;;;;;;;22.02;76.66;98792.72;4973458;28;20842;-66
2023/09/21 11:19:50;;;;;;;4.60;2.83;;;;;;;22.00;73.68;98798.09;4992018;28;20677;-66
2023/09/21 11:22:15;;;;;;;8.93;3.40;;;;;;;22.02;73.82;98798.47;4990282;28;20181;-65
2023/09/21 11:24:42;;;;;;;6.83;3.83;;;;;;;22.02;74.12;98794.78;4978643;28;20192;-65
2023/09/21 11:27:09;;;;;;;6.87;3.13;;;;;;;22.02;73.15;98789.84;4993336;28;20169;-65
2023/09/21 11:29:39;;;;;;;9.30;3.50;;;;;;;22.05;73.06;98788.16;5007359;28;20420;-65
2023/09/21 11:32:07;;;;;;;9.70;3.30;;;;;;;22.04;73.23;98778.72;4990942;28;20527;-65